createdAt,value
2023-03-24T00:00:01.207Z,5.4
2023-03-24T00:01:02.476Z,5.4
2023-03-24T00:02:00.552Z,5.4
2023-03-24T00:03:00.572Z,5.4
2023-03-24T00:04:00.558Z,5.4
2023-03-24T00:05:00.534Z,5.4
2023-03-24T00:06:02.728Z,5.4
2023-03-24T00:07:01.235Z,5.4
2023-03-24T00:08:02.185Z,5.4
2023-03-24T00:09:00.523Z,5.4
2023-03-24T00:10:00.529Z,5.4
2023-03-24T00:11:01.889Z,5.4
2023-03-24T00:12:00.488Z,5.7
2023-03-24T00:13:00.539Z,5.7
2023-03-24T00:14:02.307Z,5.7
2023-03-24T00:15:00.483Z,5.7
2023-03-24T00:16:00.646Z,5.7
2023-03-24T00:17:00.525Z,5.1
2023-03-24T00:18:00.614Z,5.1
2023-03-24T00:19:00.516Z,5.1
2023-03-24T00:20:12.247Z,5.1
2023-03-24T00:21:00.490Z,5.1
2023-03-24T00:22:01.034Z,5.1
2023-03-24T00:23:00.781Z,5.1
2023-03-24T00:24:00.495Z,5.1
2023-03-24T00:25:00.573Z,5.1
2023-03-24T00:26:03.010Z,5.1
2023-03-24T00:27:00.654Z,4.6
2023-03-24T00:28:01.798Z,4.6
2023-03-24T00:29:00.524Z,4.6
2023-03-24T00:30:00.537Z,4.6
2023-03-24T00:31:00.574Z,4.6
2023-03-24T00:32:00.631Z,4.8
2023-03-24T00:33:01.009Z,4.8
2023-03-24T00:34:00.541Z,4.8
2023-03-24T00:35:00.523Z,4.8
2023-03-24T00:36:03.834Z,4.8
2023-03-24T00:37:00.519Z,4.5
2023-03-24T00:38:00.541Z,4.5
2023-03-24T00:39:01.581Z,4.5
2023-03-24T00:40:00.561Z,4.5
2023-03-24T00:41:01.407Z,4.5
2023-03-24T00:42:00.847Z,4.8
2023-03-24T00:43:00.528Z,4.8
2023-03-24T00:44:00.683Z,4.8
2023-03-24T00:45:00.978Z,4.8
2023-03-24T00:46:05.045Z,4.8
2023-03-24T00:47:00.588Z,4.7
2023-03-24T00:48:00.609Z,4.7
2023-03-24T00:49:04.476Z,4.7
2023-03-24T00:50:00.518Z,4.7
2023-03-24T00:51:01.808Z,4.7
2023-03-24T00:52:00.516Z,4.9
2023-03-24T00:53:00.523Z,4.9
2023-03-24T00:54:01.209Z,4.9
2023-03-24T00:55:03.646Z,4.9
2023-03-24T00:56:00.515Z,4.9
2023-03-24T00:57:00.599Z,4.6
2023-03-24T00:58:00.636Z,4.6
2023-03-24T00:59:00.833Z,4.6
2023-03-24T01:00:03.412Z,4.6
2023-03-24T01:01:00.530Z,4.6
2023-03-24T01:02:00.560Z,4.9
2023-03-24T01:03:00.664Z,4.9
2023-03-24T01:04:00.961Z,4.9
2023-03-24T01:05:01.246Z,4.9
2023-03-24T01:06:03.043Z,4.9
2023-03-24T01:07:00.520Z,4.8
2023-03-24T01:08:01.070Z,4.8
2023-03-24T01:09:00.497Z,4.8
2023-03-24T01:10:00.781Z,4.8
2023-03-24T01:11:00.534Z,4.8
2023-03-24T01:12:02.366Z,5.0
2023-03-24T01:13:01.844Z,5.0
2023-03-24T01:14:00.513Z,5.0
2023-03-24T01:15:03.237Z,5.0
2023-03-24T01:16:00.582Z,5.0
2023-03-24T01:17:00.527Z,5.1
2023-03-24T01:18:01.078Z,5.1
2023-03-24T01:19:00.530Z,5.1
2023-03-24T01:20:00.562Z,5.1
2023-03-24T01:21:00.514Z,5.1
2023-03-24T01:22:00.620Z,4.6
2023-03-24T01:23:02.738Z,4.6
2023-03-24T01:24:00.517Z,4.6
2023-03-24T01:25:00.522Z,4.6
2023-03-24T01:26:05.160Z,4.6
2023-03-24T01:27:00.506Z,4.7
2023-03-24T01:28:00.759Z,4.7
2023-03-24T01:29:00.633Z,4.7
2023-03-24T01:30:00.934Z,4.7
2023-03-24T01:31:00.514Z,4.7
2023-03-24T01:32:00.535Z,5.5
2023-03-24T01:33:00.630Z,5.5
2023-03-24T01:34:01.251Z,5.5
2023-03-24T01:35:00.524Z,5.5
2023-03-24T01:36:00.717Z,5.5
2023-03-24T01:37:01.298Z,5.2
2023-03-24T01:38:05.985Z,5.2
2023-03-24T01:39:00.749Z,5.2
2023-03-24T01:40:00.717Z,5.2
2023-03-24T01:41:00.799Z,5.2
2023-03-24T01:42:00.525Z,4.9
2023-03-24T01:43:00.871Z,4.9
2023-03-24T01:44:01.032Z,4.9
2023-03-24T01:45:20.422Z,4.9
2023-03-24T01:46:07.430Z,4.9
2023-03-24T01:47:01.928Z,5.1
2023-03-24T01:48:01.778Z,5.1
2023-03-24T01:49:04.892Z,5.1
2023-03-24T01:50:01.411Z,5.1
2023-03-24T01:51:06.983Z,5.1
2023-03-24T01:52:03.098Z,5.0
2023-03-24T01:53:01.088Z,5.0
2023-03-24T01:54:06.006Z,5.0
2023-03-24T01:55:06.068Z,5.0
2023-03-24T01:56:02.322Z,5.0
2023-03-24T01:57:13.036Z,5.2
2023-03-24T01:58:01.925Z,5.2
2023-03-24T01:59:05.313Z,5.2
2023-03-24T02:00:06.251Z,5.2
2023-03-24T02:01:01.472Z,5.2
2023-03-24T02:02:01.925Z,5.0
2023-03-24T02:03:06.402Z,5.0
2023-03-24T02:04:04.206Z,5.0
2023-03-24T02:05:03.909Z,5.0
2023-03-24T02:06:00.702Z,5.0
2023-03-24T02:07:07.213Z,5.9
2023-03-24T02:08:09.601Z,5.9
2023-03-24T02:09:00.884Z,5.9
2023-03-24T02:10:04.676Z,5.9
2023-03-24T02:11:01.396Z,5.9
2023-03-24T02:12:00.696Z,5.1
2023-03-24T02:13:00.573Z,5.1
2023-03-24T02:14:01.670Z,5.1
2023-03-24T02:15:01.792Z,5.1
2023-03-24T02:16:20.494Z,5.4
2023-03-24T02:17:12.983Z,5.4
2023-03-24T02:18:14.076Z,5.4
2023-03-24T02:19:20.627Z,5.4
2023-03-24T02:20:11.892Z,5.4
2023-03-24T02:21:20.439Z,5.6
2023-03-24T02:22:20.413Z,5.6
2023-03-24T02:23:03.778Z,5.6
2023-03-24T02:24:20.422Z,5.6
2023-03-24T02:25:10.479Z,5.6
2023-03-24T02:26:17.607Z,5.3
2023-03-24T02:27:11.521Z,5.3
2023-03-24T02:28:10.009Z,5.3
2023-03-24T02:29:13.708Z,5.3
2023-03-24T02:30:19.587Z,5.3
2023-03-24T02:31:07.840Z,5.0
2023-03-24T02:32:17.981Z,5.0
2023-03-24T02:33:17.861Z,5.0
2023-03-24T02:34:19.511Z,5.0
2023-03-24T02:35:13.717Z,5.0
2023-03-24T02:36:20.445Z,4.7
2023-03-24T02:37:20.428Z,4.7
2023-03-24T02:38:18.192Z,4.7
2023-03-24T02:39:20.426Z,4.7
2023-03-24T02:40:13.718Z,4.7
2023-03-24T02:41:16.808Z,5.0
2023-03-24T02:42:10.477Z,5.0
2023-03-24T02:43:17.920Z,5.0
2023-03-24T02:44:17.828Z,5.0
2023-03-24T02:45:07.979Z,5.0
2023-03-24T02:46:01.546Z,5.0
2023-03-24T02:47:07.782Z,5.0
2023-03-24T02:48:18.825Z,5.0
2023-03-24T02:49:09.449Z,5.0
2023-03-24T02:50:14.102Z,5.0
2023-03-24T02:51:06.953Z,4.7
2023-03-24T02:52:08.857Z,4.7
2023-03-24T02:53:11.812Z,4.7
2023-03-24T02:54:08.644Z,4.7
2023-03-24T02:55:08.835Z,4.7
2023-03-24T02:56:12.021Z,4.8
2023-03-24T02:57:06.334Z,4.8
2023-03-24T02:58:03.940Z,4.8
2023-03-24T02:59:04.592Z,4.8
2023-03-24T03:00:07.742Z,4.8
2023-03-24T03:01:05.569Z,4.7
2023-03-24T03:02:06.335Z,4.7
2023-03-24T03:03:06.998Z,4.7
2023-03-24T03:04:07.096Z,4.7
2023-03-24T03:05:09.012Z,4.7
2023-03-24T03:06:18.045Z,4.8
2023-03-24T03:07:03.911Z,4.8
2023-03-24T03:08:04.629Z,4.8
2023-03-24T03:09:04.889Z,4.8
2023-03-24T03:10:09.930Z,4.8
2023-03-24T03:11:04.244Z,4.7
2023-03-24T03:12:03.237Z,4.7
2023-03-24T03:13:06.832Z,4.7
2023-03-24T03:14:06.984Z,4.7
2023-03-24T03:15:05.776Z,4.7
2023-03-24T03:16:07.503Z,4.8
2023-03-24T03:17:06.443Z,4.8
2023-03-24T03:18:01.569Z,4.8
2023-03-24T03:19:05.481Z,4.8
2023-03-24T03:20:06.598Z,4.8
2023-03-24T03:21:04.934Z,4.9
2023-03-24T03:22:04.260Z,4.9
2023-03-24T03:23:05.427Z,4.9
2023-03-24T03:24:05.882Z,4.9
2023-03-24T03:25:02.964Z,4.9
2023-03-24T03:26:03.651Z,4.6
2023-03-24T03:27:15.162Z,4.6
2023-03-24T03:28:03.850Z,4.6
2023-03-24T03:29:07.592Z,4.6
2023-03-24T03:30:10.493Z,4.6
2023-03-24T03:31:05.435Z,4.5
2023-03-24T03:32:04.061Z,4.5
2023-03-24T03:33:06.881Z,4.5
2023-03-24T03:34:17.882Z,4.5
2023-03-24T03:35:14.860Z,4.5
2023-03-24T03:36:13.765Z,4.4
2023-03-24T03:37:08.388Z,4.4
2023-03-24T03:38:15.117Z,4.4
2023-03-24T03:39:15.243Z,4.4
2023-03-24T03:40:08.034Z,4.4
2023-03-24T03:41:03.580Z,4.6
2023-03-24T03:42:01.948Z,4.6
2023-03-24T03:43:02.136Z,4.6
2023-03-24T03:44:00.746Z,4.6
2023-03-24T03:45:00.732Z,4.6
2023-03-24T03:46:03.095Z,4.8
2023-03-24T03:47:00.580Z,4.8
2023-03-24T03:48:00.984Z,4.8
2023-03-24T03:49:01.548Z,4.8
2023-03-24T03:50:01.321Z,4.8
2023-03-24T03:51:13.077Z,4.8
2023-03-24T03:52:01.442Z,4.9
2023-03-24T03:53:00.536Z,4.9
2023-03-24T03:54:04.872Z,4.9
2023-03-24T03:55:01.948Z,4.9
2023-03-24T03:56:00.848Z,5.0
2023-03-24T03:57:00.727Z,5.0
2023-03-24T03:58:02.253Z,5.0
2023-03-24T03:59:00.972Z,5.0
2023-03-24T04:00:02.787Z,5.0
2023-03-24T04:01:02.249Z,5.1
2023-03-24T04:02:13.009Z,5.1
2023-03-24T04:03:13.780Z,5.1
2023-03-24T04:04:20.437Z,5.1
2023-03-24T04:05:18.215Z,5.1
2023-03-24T04:06:12.674Z,5.4
2023-03-24T04:07:13.910Z,5.4
2023-03-24T04:08:15.847Z,5.4
2023-03-24T04:09:20.449Z,5.4
2023-03-24T04:10:04.786Z,5.4
2023-03-24T04:11:17.119Z,4.8
2023-03-24T04:12:10.470Z,4.8
2023-03-24T04:13:10.644Z,4.8
2023-03-24T04:14:17.659Z,4.8
2023-03-24T04:15:12.105Z,4.8
2023-03-24T04:16:20.502Z,5.1
2023-03-24T04:17:10.458Z,5.1
2023-03-24T04:18:10.458Z,5.1
2023-03-24T04:19:15.675Z,5.1
2023-03-24T04:20:14.108Z,5.1
2023-03-24T04:21:10.456Z,5.0
2023-03-24T04:22:01.566Z,5.0
2023-03-24T04:23:10.563Z,5.0
2023-03-24T04:24:10.461Z,5.0
2023-03-24T04:25:14.223Z,5.0
2023-03-24T04:26:02.538Z,5.2
2023-03-24T04:27:13.842Z,5.2
2023-03-24T04:28:08.181Z,5.2
2023-03-24T04:29:07.055Z,5.2
2023-03-24T04:30:08.064Z,5.2
2023-03-24T04:31:10.420Z,5.3
2023-03-24T04:32:11.841Z,5.3
2023-03-24T04:33:11.678Z,5.3
2023-03-24T04:34:17.396Z,5.3
2023-03-24T04:35:06.522Z,5.3
2023-03-24T04:36:06.076Z,5.0
2023-03-24T04:37:06.806Z,5.0
2023-03-24T04:38:04.693Z,5.0
2023-03-24T04:39:01.465Z,5.0
2023-03-24T04:40:07.099Z,5.0
2023-03-24T04:41:02.499Z,4.7
2023-03-24T04:42:03.872Z,4.7
2023-03-24T04:43:03.847Z,4.7
2023-03-24T04:44:00.632Z,4.7
2023-03-24T04:45:01.966Z,4.7
2023-03-24T04:46:02.326Z,5.1
2023-03-24T04:47:03.655Z,5.1
2023-03-24T04:48:04.692Z,5.1
2023-03-24T04:49:00.543Z,5.1
2023-03-24T04:50:02.128Z,5.1
2023-03-24T04:51:02.718Z,5.1
2023-03-24T04:52:00.589Z,5.1
2023-03-24T04:53:00.980Z,5.1
2023-03-24T04:54:00.561Z,5.1
2023-03-24T04:55:01.868Z,5.1
2023-03-24T04:56:10.477Z,4.9
2023-03-24T04:57:00.980Z,4.9
2023-03-24T04:58:00.500Z,4.9
2023-03-24T04:59:00.764Z,4.9
2023-03-24T05:00:00.509Z,4.9
2023-03-24T05:01:00.516Z,5.0
2023-03-24T05:02:00.989Z,5.0
2023-03-24T05:03:00.538Z,5.0
2023-03-24T05:04:00.589Z,5.0
2023-03-24T05:05:00.604Z,5.0
2023-03-24T05:06:00.492Z,4.9
2023-03-24T05:07:00.513Z,4.9
2023-03-24T05:08:00.547Z,4.9
2023-03-24T05:09:00.513Z,4.9
2023-03-24T05:10:00.657Z,4.9
2023-03-24T05:11:00.521Z,5.2
2023-03-24T05:12:01.890Z,5.2
2023-03-24T05:13:01.737Z,5.2
2023-03-24T05:14:00.522Z,5.2
2023-03-24T05:15:00.571Z,5.2
2023-03-24T05:16:00.554Z,4.8
2023-03-24T05:17:00.566Z,4.8
2023-03-24T05:18:00.935Z,4.8
2023-03-24T05:19:00.523Z,4.8
2023-03-24T05:20:00.557Z,4.8
2023-03-24T05:21:00.503Z,5.0
2023-03-24T05:22:00.520Z,5.0
2023-03-24T05:23:00.513Z,5.0
2023-03-24T05:24:00.506Z,5.0
2023-03-24T05:25:00.542Z,5.0
2023-03-24T05:26:00.571Z,5.1
2023-03-24T05:27:00.495Z,5.1
2023-03-24T05:28:00.568Z,5.1
2023-03-24T05:29:00.568Z,5.1
2023-03-24T05:30:00.573Z,5.1
2023-03-24T05:31:00.622Z,5.2
2023-03-24T05:32:00.515Z,5.2
2023-03-24T05:33:00.611Z,5.2
2023-03-24T05:34:00.527Z,5.2
2023-03-24T05:35:00.932Z,5.2
2023-03-24T05:36:00.816Z,5.0
2023-03-24T05:37:00.519Z,5.0
2023-03-24T05:38:00.563Z,5.0
2023-03-24T05:39:00.516Z,5.0
2023-03-24T05:40:00.499Z,5.0
2023-03-24T05:41:00.881Z,4.9
2023-03-24T05:42:00.490Z,4.9
2023-03-24T05:43:00.545Z,4.9
2023-03-24T05:44:00.556Z,4.9
2023-03-24T05:45:00.559Z,4.9
2023-03-24T05:46:00.569Z,4.8
2023-03-24T05:47:00.680Z,4.8
2023-03-24T05:48:00.520Z,4.8
2023-03-24T05:49:00.528Z,4.8
2023-03-24T05:50:00.530Z,4.8
2023-03-24T05:51:00.514Z,4.8
2023-03-24T05:52:00.518Z,4.8
2023-03-24T05:53:00.550Z,4.8
2023-03-24T05:54:00.496Z,4.8
2023-03-24T05:55:01.142Z,4.8
2023-03-24T05:56:00.509Z,4.8
2023-03-24T05:57:00.733Z,4.8
2023-03-24T05:58:00.773Z,4.8
2023-03-24T05:59:00.505Z,4.8
2023-03-24T06:00:00.495Z,4.8
2023-03-24T06:01:06.281Z,4.8
2023-03-24T06:02:00.572Z,4.8
2023-03-24T06:03:00.590Z,4.8
2023-03-24T06:04:00.591Z,4.8
2023-03-24T06:05:00.539Z,4.8
2023-03-24T06:06:00.507Z,4.8
2023-03-24T06:07:00.799Z,4.8
2023-03-24T06:08:00.517Z,4.8
2023-03-24T06:09:00.522Z,4.8
2023-03-24T06:10:00.541Z,4.8
2023-03-24T06:11:02.387Z,4.6
2023-03-24T06:12:02.441Z,4.6
2023-03-24T06:13:00.517Z,4.6
2023-03-24T06:14:00.512Z,4.6
2023-03-24T06:15:00.674Z,4.6
2023-03-24T06:16:03.558Z,4.7
2023-03-24T06:17:00.507Z,4.7
2023-03-24T06:18:00.540Z,4.7
2023-03-24T06:19:00.526Z,4.7
2023-03-24T06:20:00.512Z,4.7
2023-03-24T06:21:00.523Z,5.0
2023-03-24T06:22:00.616Z,5.0
2023-03-24T06:23:00.710Z,5.0
2023-03-24T06:24:00.743Z,5.0
2023-03-24T06:25:00.879Z,5.0
2023-03-24T06:26:00.560Z,4.8
2023-03-24T06:27:00.512Z,4.8
2023-03-24T06:28:00.522Z,4.8
2023-03-24T06:29:00.759Z,4.8
2023-03-24T06:30:01.222Z,4.8
2023-03-24T06:31:03.851Z,4.8
2023-03-24T06:32:00.539Z,4.8
2023-03-24T06:33:00.610Z,4.8
2023-03-24T06:34:00.584Z,4.8
2023-03-24T06:35:00.538Z,4.8
2023-03-24T06:36:05.481Z,4.9
2023-03-24T06:37:00.521Z,4.9
2023-03-24T06:38:00.520Z,4.9
2023-03-24T06:39:01.115Z,4.9
2023-03-24T06:40:00.617Z,4.9
2023-03-24T06:41:02.072Z,5.0
2023-03-24T06:42:00.538Z,5.0
2023-03-24T06:43:00.552Z,5.0
2023-03-24T06:44:00.539Z,5.0
2023-03-24T06:45:00.548Z,5.0
2023-03-24T06:46:00.779Z,5.1
2023-03-24T06:47:00.511Z,5.1
2023-03-24T06:48:00.544Z,5.1
2023-03-24T06:49:00.536Z,5.1
2023-03-24T06:50:00.552Z,5.1
2023-03-24T06:51:00.663Z,4.9
2023-03-24T06:52:00.522Z,4.9
2023-03-24T06:53:00.870Z,4.9
2023-03-24T06:54:00.529Z,4.9
2023-03-24T06:55:01.142Z,4.9
2023-03-24T06:56:00.511Z,4.9
2023-03-24T06:57:00.607Z,4.9
2023-03-24T06:58:00.499Z,4.9
2023-03-24T06:59:00.648Z,4.9
2023-03-24T07:00:00.699Z,4.9
2023-03-24T07:01:00.646Z,5.1
2023-03-24T07:02:00.538Z,5.1
2023-03-24T07:03:00.612Z,5.1
2023-03-24T07:04:00.950Z,5.1
2023-03-24T07:05:01.944Z,5.1
2023-03-24T07:06:00.522Z,5.2
2023-03-24T07:07:27.905Z,5.2
2023-03-24T07:09:00.558Z,5.2
2023-03-24T07:10:00.869Z,5.2
2023-03-24T07:11:01.095Z,4.8
2023-03-24T07:12:00.510Z,4.8
2023-03-24T07:13:00.805Z,4.8
2023-03-24T07:14:00.518Z,4.8
2023-03-24T07:15:00.587Z,4.8
2023-03-24T07:16:00.714Z,5.1
2023-03-24T07:17:00.546Z,5.1
2023-03-24T07:18:00.669Z,5.1
2023-03-24T07:19:00.539Z,5.1
2023-03-24T07:20:00.697Z,5.1
2023-03-24T07:21:00.517Z,5.8
2023-03-24T07:22:00.513Z,5.8
2023-03-24T07:23:00.597Z,5.8
2023-03-24T07:24:00.527Z,5.8
2023-03-24T07:25:00.516Z,5.8
2023-03-24T07:26:00.547Z,5.2
2023-03-24T07:27:01.060Z,5.2
2023-03-24T07:28:00.531Z,5.2
2023-03-24T07:29:00.511Z,5.2
2023-03-24T07:30:01.488Z,5.2
2023-03-24T07:31:01.665Z,6.1
2023-03-24T07:32:00.839Z,6.1
2023-03-24T07:33:01.705Z,6.1
2023-03-24T07:34:02.135Z,6.1
2023-03-24T07:35:00.759Z,6.1
2023-03-24T07:36:00.779Z,5.5
2023-03-24T07:37:02.075Z,5.5
2023-03-24T07:38:01.134Z,5.5
2023-03-24T07:39:00.640Z,5.5
2023-03-24T07:40:00.502Z,5.5
2023-03-24T07:41:00.567Z,4.9
2023-03-24T07:42:00.518Z,4.9
2023-03-24T07:43:01.831Z,4.9
2023-03-24T07:44:00.671Z,4.9
2023-03-24T07:45:00.518Z,4.9
2023-03-24T07:46:00.588Z,4.9
2023-03-24T07:47:00.564Z,4.9
2023-03-24T07:48:00.613Z,4.9
2023-03-24T07:49:12.146Z,4.9
2023-03-24T07:50:00.524Z,4.9
2023-03-24T07:51:00.532Z,4.9
2023-03-24T07:52:00.516Z,4.9
2023-03-24T07:53:00.554Z,4.9
2023-03-24T07:54:00.560Z,4.9
2023-03-24T07:55:00.533Z,4.9
2023-03-24T07:56:00.529Z,4.9
2023-03-24T07:57:01.005Z,4.9
2023-03-24T07:58:00.515Z,4.9
2023-03-24T07:59:02.166Z,4.9
2023-03-24T08:00:00.520Z,4.9
2023-03-24T08:01:00.556Z,5.2
2023-03-24T08:02:00.797Z,5.2
2023-03-24T08:03:00.888Z,5.2
2023-03-24T08:04:00.720Z,5.2
2023-03-24T08:05:00.607Z,5.2
2023-03-24T08:06:00.827Z,4.6
2023-03-24T08:07:00.517Z,4.6
2023-03-24T08:08:00.509Z,4.6
2023-03-24T08:09:00.573Z,4.6
2023-03-24T08:10:00.519Z,4.6
2023-03-24T08:11:00.975Z,5.1
2023-03-24T08:12:06.877Z,5.1
2023-03-24T08:13:00.712Z,5.1
2023-03-24T08:14:00.501Z,5.1
2023-03-24T08:15:00.522Z,5.1
2023-03-24T08:16:00.564Z,5.5
2023-03-24T08:17:00.639Z,5.5
2023-03-24T08:18:00.566Z,5.5
2023-03-24T08:19:00.529Z,5.5
2023-03-24T08:20:02.162Z,5.5
2023-03-24T08:21:00.561Z,6.8
2023-03-24T08:22:00.530Z,6.8
2023-03-24T08:23:01.459Z,6.8
2023-03-24T08:24:00.525Z,6.8
2023-03-24T08:25:00.558Z,6.8
2023-03-24T08:26:00.509Z,5.3
2023-03-24T08:27:00.772Z,5.3
2023-03-24T08:28:00.690Z,5.3
2023-03-24T08:29:00.675Z,5.3
2023-03-24T08:30:00.527Z,5.3
2023-03-24T08:31:00.557Z,5.3
2023-03-24T08:32:00.978Z,5.3
2023-03-24T08:33:02.279Z,5.3
2023-03-24T08:34:01.492Z,5.3
2023-03-24T08:35:01.015Z,5.3
2023-03-24T08:36:00.675Z,5.2
2023-03-24T08:37:00.501Z,5.2
2023-03-24T08:38:01.010Z,5.2
2023-03-24T08:39:00.537Z,5.2
2023-03-24T08:40:00.579Z,5.2
2023-03-24T08:41:02.168Z,5.0
2023-03-24T08:42:01.582Z,5.0
2023-03-24T08:43:04.146Z,5.0
2023-03-24T08:44:01.456Z,5.0
2023-03-24T08:45:00.572Z,5.0
2023-03-24T08:46:01.057Z,5.2
2023-03-24T08:47:00.550Z,5.2
2023-03-24T08:48:03.934Z,5.2
2023-03-24T08:49:00.874Z,5.2
2023-03-24T08:50:00.594Z,5.2
2023-03-24T08:51:09.360Z,4.8
2023-03-24T08:52:00.559Z,4.8
2023-03-24T08:53:00.845Z,4.8
2023-03-24T08:54:00.527Z,4.8
2023-03-24T08:55:00.837Z,4.8
2023-03-24T08:56:00.514Z,4.7
2023-03-24T08:57:00.562Z,4.7
2023-03-24T08:58:00.596Z,4.7
2023-03-24T08:59:00.541Z,4.7
2023-03-24T09:00:00.772Z,4.7
2023-03-24T09:01:01.474Z,4.7
2023-03-24T09:02:00.564Z,4.7
2023-03-24T09:03:00.591Z,4.7
2023-03-24T09:04:00.524Z,4.7
2023-03-24T09:05:00.589Z,4.7
2023-03-24T09:06:00.685Z,4.3
2023-03-24T09:07:02.834Z,4.3
2023-03-24T09:08:00.500Z,4.3
2023-03-24T09:09:00.539Z,4.3
2023-03-24T09:10:00.593Z,4.3
2023-03-24T09:11:00.607Z,4.7
2023-03-24T09:12:00.500Z,4.7
2023-03-24T09:13:00.625Z,4.7
2023-03-24T09:14:00.531Z,4.7
2023-03-24T09:15:00.800Z,4.7
2023-03-24T09:16:02.557Z,4.3
2023-03-24T09:17:00.528Z,4.3
2023-03-24T09:18:00.811Z,4.3
2023-03-24T09:19:00.505Z,4.3
2023-03-24T09:20:02.173Z,4.3
2023-03-24T09:21:00.885Z,4.9
2023-03-24T09:22:00.508Z,4.9
2023-03-24T09:23:00.596Z,4.9
2023-03-24T09:24:00.527Z,4.9
2023-03-24T09:25:00.487Z,4.9
2023-03-24T09:26:01.211Z,4.4
2023-03-24T09:27:00.485Z,4.4
2023-03-24T09:28:00.530Z,4.4
2023-03-24T09:29:00.500Z,4.4
2023-03-24T09:30:00.586Z,4.4
2023-03-24T09:31:03.190Z,4.2
2023-03-24T09:32:00.519Z,4.2
2023-03-24T09:33:00.566Z,4.2
2023-03-24T09:34:03.828Z,4.2
2023-03-24T09:35:00.825Z,4.2
2023-03-24T09:36:02.007Z,4.6
2023-03-24T09:37:00.814Z,4.6
2023-03-24T09:38:00.529Z,4.6
2023-03-24T09:39:00.502Z,4.6
2023-03-24T09:40:00.822Z,4.6
2023-03-24T09:41:01.759Z,5.0
2023-03-24T09:42:02.412Z,5.0
2023-03-24T09:43:01.536Z,5.0
2023-03-24T09:44:08.232Z,5.0
2023-03-24T09:45:10.875Z,5.0
2023-03-24T09:46:05.437Z,4.4
2023-03-24T09:47:15.553Z,4.4
2023-03-24T09:48:07.503Z,4.4
2023-03-24T09:49:01.703Z,4.4
2023-03-24T09:50:05.784Z,4.4
2023-03-24T09:51:20.456Z,4.6
2023-03-24T09:52:04.876Z,4.6
2023-03-24T09:53:08.380Z,4.6
2023-03-24T09:54:17.100Z,4.6
2023-03-24T09:55:01.153Z,4.6
2023-03-24T09:56:10.582Z,4.1
2023-03-24T09:57:01.173Z,4.1
2023-03-24T09:58:05.519Z,4.1
2023-03-24T09:59:05.742Z,4.1
2023-03-24T10:00:07.555Z,4.1
2023-03-24T10:01:00.605Z,4.2
2023-03-24T10:02:00.923Z,4.2
2023-03-24T10:03:12.640Z,4.2
2023-03-24T10:04:01.260Z,4.2
2023-03-24T10:05:00.621Z,4.2
2023-03-24T10:06:10.019Z,5.3
2023-03-24T10:07:12.209Z,5.3
2023-03-24T10:08:10.471Z,5.3
2023-03-24T10:09:20.438Z,5.3
2023-03-24T10:10:00.972Z,5.3
2023-03-24T10:11:11.530Z,4.6
2023-03-24T10:12:13.746Z,4.6
2023-03-24T10:13:06.120Z,4.6
2023-03-24T10:14:04.859Z,4.6
2023-03-24T10:15:10.517Z,4.6
2023-03-24T10:16:11.353Z,4.0
2023-03-24T10:17:10.473Z,4.0
2023-03-24T10:18:11.519Z,4.0
2023-03-24T10:19:16.155Z,4.0
2023-03-24T10:20:18.120Z,4.0
2023-03-24T10:21:07.856Z,3.8
2023-03-24T10:22:04.728Z,3.8
2023-03-24T10:23:17.793Z,3.8
2023-03-24T10:24:10.480Z,3.8
2023-03-24T10:25:10.522Z,3.8
2023-03-24T10:26:10.491Z,3.7
2023-03-24T10:27:20.438Z,3.7
2023-03-24T10:28:08.620Z,3.7
2023-03-24T10:29:10.479Z,3.7
2023-03-24T10:30:16.217Z,3.7
2023-03-24T10:31:06.855Z,3.4
2023-03-24T10:32:13.698Z,3.4
2023-03-24T10:33:00.561Z,3.4
2023-03-24T10:34:00.632Z,3.4
2023-03-24T10:35:04.582Z,3.4
2023-03-24T10:36:08.002Z,3.7
2023-03-24T10:37:02.183Z,3.7
2023-03-24T10:38:10.893Z,3.7
2023-03-24T10:39:12.953Z,3.7
2023-03-24T10:40:00.695Z,3.7
2023-03-24T10:41:01.278Z,3.9
2023-03-24T10:42:00.559Z,3.9
2023-03-24T10:43:07.221Z,3.9
2023-03-24T10:44:00.959Z,3.9
2023-03-24T10:45:01.553Z,3.9
2023-03-24T10:46:01.300Z,4.5
2023-03-24T10:47:03.795Z,4.5
2023-03-24T10:48:01.989Z,4.5
2023-03-24T10:49:11.524Z,4.5
2023-03-24T10:50:12.560Z,4.5
2023-03-24T10:51:00.553Z,4.1
2023-03-24T10:52:02.240Z,4.1
2023-03-24T10:53:08.010Z,4.1
2023-03-24T10:54:11.155Z,4.1
2023-03-24T10:55:03.994Z,4.1
2023-03-24T10:56:00.542Z,3.5
2023-03-24T10:57:06.164Z,3.5
2023-03-24T10:58:00.650Z,3.5
2023-03-24T10:59:01.268Z,3.5
2023-03-24T11:00:13.884Z,3.5
2023-03-24T11:01:01.877Z,3.9
2023-03-24T11:02:11.511Z,3.9
2023-03-24T11:03:05.584Z,3.9
2023-03-24T11:04:04.682Z,3.9
2023-03-24T11:05:12.141Z,3.9
2023-03-24T11:06:02.825Z,3.8
2023-03-24T11:07:04.681Z,3.8
2023-03-24T11:08:20.436Z,3.8
2023-03-24T11:09:09.498Z,3.8
2023-03-24T11:10:10.453Z,3.8
2023-03-24T11:11:20.438Z,4.2
2023-03-24T11:12:02.995Z,4.2
2023-03-24T11:13:01.194Z,4.2
2023-03-24T11:14:02.512Z,4.2
2023-03-24T11:15:20.399Z,4.2
2023-03-24T11:16:11.760Z,4.1
2023-03-24T11:17:09.840Z,4.1
2023-03-24T11:18:11.479Z,4.1
2023-03-24T11:19:02.888Z,4.1
2023-03-24T11:20:00.563Z,4.1
2023-03-24T11:21:02.545Z,4.4
2023-03-24T11:22:02.980Z,4.4
2023-03-24T11:23:05.948Z,4.4
2023-03-24T11:24:07.799Z,4.4
2023-03-24T11:25:00.546Z,4.4
2023-03-24T11:26:12.932Z,4.2
2023-03-24T11:27:01.095Z,4.2
2023-03-24T11:28:05.398Z,4.2
2023-03-24T11:29:04.274Z,4.2
2023-03-24T11:30:00.630Z,4.2
2023-03-24T11:31:05.990Z,4.2
2023-03-24T11:32:03.012Z,4.2
2023-03-24T11:33:01.981Z,4.2
2023-03-24T11:34:08.292Z,4.2
2023-03-24T11:35:13.187Z,4.2
2023-03-24T11:36:05.879Z,4.3
2023-03-24T11:37:12.372Z,4.3
2023-03-24T11:38:03.048Z,4.3
2023-03-24T11:39:08.732Z,4.3
2023-03-24T11:40:11.445Z,4.3
2023-03-24T11:41:02.063Z,4.2
2023-03-24T11:42:01.921Z,4.2
2023-03-24T11:43:02.723Z,4.2
2023-03-24T11:44:20.438Z,4.2
2023-03-24T11:45:01.305Z,4.2
2023-03-24T11:46:10.451Z,4.3
2023-03-24T11:47:08.981Z,4.3
2023-03-24T11:48:03.585Z,4.3
2023-03-24T11:49:00.766Z,4.3
2023-03-24T11:50:10.564Z,4.3
2023-03-24T11:51:03.028Z,4.1
2023-03-24T11:52:01.942Z,4.1
2023-03-24T11:53:06.373Z,4.1
2023-03-24T11:54:04.795Z,4.1
2023-03-24T11:55:02.464Z,4.1
2023-03-24T11:56:09.461Z,4.4
2023-03-24T11:57:06.737Z,4.4
2023-03-24T11:58:13.719Z,4.4
2023-03-24T11:59:10.770Z,4.4
2023-03-24T12:00:18.144Z,4.4
2023-03-24T12:01:08.598Z,4.5
2023-03-24T12:02:10.462Z,4.5
2023-03-24T12:03:12.383Z,4.5
2023-03-24T12:04:12.045Z,4.5
2023-03-24T12:05:17.746Z,4.5
2023-03-24T12:06:17.264Z,4.6
2023-03-24T12:07:10.626Z,4.6
2023-03-24T12:08:09.501Z,4.6
2023-03-24T12:09:17.996Z,4.6
2023-03-24T12:10:20.069Z,4.6
2023-03-24T12:11:06.785Z,4.9
2023-03-24T12:12:11.477Z,4.9
2023-03-24T12:13:00.467Z,4.9
2023-03-24T12:14:03.698Z,4.9
2023-03-24T12:15:24.624Z,4.9
2023-03-24T12:16:03.782Z,5.2
2023-03-24T12:17:15.402Z,5.2
2023-03-24T12:18:20.405Z,5.2
2023-03-24T12:19:17.048Z,5.2
2023-03-24T12:20:10.011Z,5.2
2023-03-24T12:21:15.266Z,4.9
2023-03-24T12:22:12.751Z,4.9
2023-03-24T12:23:10.989Z,4.9
2023-03-24T12:24:11.453Z,4.9
2023-03-24T12:25:20.450Z,4.9
2023-03-24T12:26:16.290Z,4.6
2023-03-24T12:27:00.518Z,4.6
2023-03-24T12:28:10.423Z,4.6
2023-03-24T12:29:09.028Z,4.6
2023-03-24T12:30:15.207Z,4.6
2023-03-24T12:31:10.893Z,4.9
2023-03-24T12:32:13.708Z,4.9
2023-03-24T12:33:20.396Z,4.9
2023-03-24T12:34:10.450Z,4.9
2023-03-24T12:35:13.558Z,4.9
2023-03-24T12:36:11.514Z,4.8
2023-03-24T12:37:13.727Z,4.8
2023-03-24T12:38:17.626Z,4.8
2023-03-24T12:39:09.608Z,4.8
2023-03-24T12:40:10.610Z,4.8
2023-03-24T12:41:17.717Z,4.9
2023-03-24T12:42:14.995Z,4.9
2023-03-24T12:43:09.533Z,4.9
2023-03-24T12:44:10.642Z,4.9
2023-03-24T12:45:20.478Z,4.9
2023-03-24T12:46:14.635Z,4.8
2023-03-24T12:47:13.800Z,4.8
2023-03-24T12:48:07.101Z,4.8
2023-03-24T12:49:16.795Z,4.8
2023-03-24T12:50:20.419Z,4.8
2023-03-24T12:51:14.540Z,4.9
2023-03-24T12:52:13.707Z,4.9
2023-03-24T12:53:20.422Z,4.9
2023-03-24T12:54:15.012Z,4.9
2023-03-24T12:55:17.445Z,4.9
2023-03-24T12:56:08.409Z,6.3
2023-03-24T12:57:05.960Z,6.3
2023-03-24T12:58:09.225Z,6.3
2023-03-24T12:59:08.937Z,6.3
2023-03-24T13:00:08.211Z,6.3
2023-03-24T13:01:18.036Z,5.6
2023-03-24T13:02:11.107Z,5.6
2023-03-24T13:03:08.733Z,5.6
2023-03-24T13:04:09.332Z,5.6
2023-03-24T13:05:06.047Z,5.6
2023-03-24T13:06:17.163Z,5.8
2023-03-24T13:07:04.624Z,5.8
2023-03-24T13:08:04.983Z,5.8
2023-03-24T13:09:13.478Z,5.8
2023-03-24T13:10:05.305Z,5.8
2023-03-24T13:11:08.848Z,5.9
2023-03-24T13:12:09.096Z,5.9
2023-03-24T13:13:07.791Z,5.9
2023-03-24T13:14:03.649Z,5.9
2023-03-24T13:15:00.503Z,5.9
2023-03-24T13:16:08.166Z,5.6
2023-03-24T13:17:04.929Z,5.6
2023-03-24T13:18:10.501Z,5.6
2023-03-24T13:19:00.739Z,5.6
2023-03-24T13:20:02.459Z,5.6
2023-03-24T13:21:06.062Z,5.7
2023-03-24T13:22:03.511Z,5.7
2023-03-24T13:23:13.588Z,5.7
2023-03-24T13:24:13.573Z,5.7
2023-03-24T13:25:03.477Z,5.7
2023-03-24T13:26:13.745Z,6.9
2023-03-24T13:27:09.682Z,6.9
2023-03-24T13:28:06.528Z,6.9
2023-03-24T13:29:17.909Z,6.9
2023-03-24T13:30:12.262Z,6.9
2023-03-24T13:31:02.484Z,5.3
2023-03-24T13:32:06.039Z,5.3
2023-03-24T13:33:09.942Z,5.3
2023-03-24T13:34:03.871Z,5.3
2023-03-24T13:35:13.780Z,5.3
2023-03-24T13:36:03.843Z,4.7
2023-03-24T13:37:06.344Z,4.7
2023-03-24T13:38:13.591Z,4.7
2023-03-24T13:39:05.839Z,4.7
2023-03-24T13:40:06.530Z,4.7
2023-03-24T13:41:03.617Z,7.1
2023-03-24T13:42:01.810Z,7.1
2023-03-24T13:43:09.147Z,7.1
2023-03-24T13:44:14.111Z,7.1
2023-03-24T13:45:03.848Z,7.1
2023-03-24T13:46:03.391Z,6.0
2023-03-24T13:47:09.024Z,6.0